sensor_id;sensor_type;location;lat;lon;timestamp;P1;durP1;ratioP1;P2;durP2;ratioP2
18140;SDS011;9196;49.194;12.526;2022-08-21T00:00:43;16.83;;;15.00;;
18140;SDS011;9196;49.194;12.526;2022-08-21T00:03:10;15.57;;;13.93;;
18140;SDS011;9196;49.194;12.526;2022-08-21T00:05:40;16.30;;;14.47;;
18140;SDS011;9196;49.194;12.526;2022-08-21T00:08:09;16.80;;;15.07;;
18140;SDS011;9196;49.194;12.526;2022-08-21T00:10:36;18.80;;;15.27;;
18140;SDS011;9196;49.194;12.526;2022-08-21T00:13:03;16.60;;;14.90;;
18140;SDS011;9196;49.194;12.526;2022-08-21T00:15:33;17.20;;;15.40;;
18140;SDS011;9196;49.194;12.526;2022-08-21T00:18:02;14.97;;;13.37;;
18140;SDS011;9196;49.194;12.526;2022-08-21T00:20:29;16.43;;;14.57;;
18140;SDS011;9196;49.194;12.526;2022-08-21T00:22:56;15.97;;;14.33;;
18140;SDS011;9196;49.194;12.526;2022-08-21T00:25:23;15.57;;;14.10;;
18140;SDS011;9196;49.194;12.526;2022-08-21T00:27:50;15.03;;;13.50;;
18140;SDS011;9196;49.194;12.526;2022-08-21T00:30:18;15.73;;;14.03;;
18140;SDS011;9196;49.194;12.526;2022-08-21T00:32:47;16.20;;;14.50;;
18140;SDS011;9196;49.194;12.526;2022-08-21T00:35:14;17.60;;;13.97;;
18140;SDS011;9196;49.194;12.526;2022-08-21T00:37:43;17.70;;;13.37;;
18140;SDS011;9196;49.194;12.526;2022-08-21T00:40:11;16.03;;;13.33;;
18140;SDS011;9196;49.194;12.526;2022-08-21T00:42:41;16.00;;;14.33;;
18140;SDS011;9196;49.194;12.526;2022-08-21T00:45:09;16.97;;;14.60;;
18140;SDS011;9196;49.194;12.526;2022-08-21T00:47:36;14.60;;;13.30;;
18140;SDS011;9196;49.194;12.526;2022-08-21T00:50:05;14.73;;;13.37;;
18140;SDS011;9196;49.194;12.526;2022-08-21T00:52:34;16.13;;;14.50;;
18140;SDS011;9196;49.194;12.526;2022-08-21T00:55:03;17.00;;;15.40;;
18140;SDS011;9196;49.194;12.526;2022-08-21T00:57:34;17.10;;;15.30;;
18140;SDS011;9196;49.194;12.526;2022-08-21T01:00:05;19.67;;;13.60;;
18140;SDS011;9196;49.194;12.526;2022-08-21T01:02:36;16.33;;;14.70;;
18140;SDS011;9196;49.194;12.526;2022-08-21T01:05:05;15.43;;;13.87;;
18140;SDS011;9196;49.194;12.526;2022-08-21T01:07:33;19.70;;;14.60;;
18140;SDS011;9196;49.194;12.526;2022-08-21T01:10:00;15.67;;;14.07;;
18140;SDS011;9196;49.194;12.526;2022-08-21T01:12:27;18.30;;;12.80;;
18140;SDS011;9196;49.194;12.526;2022-08-21T01:14:54;16.63;;;14.93;;
18140;SDS011;9196;49.194;12.526;2022-08-21T01:17:21;13.80;;;12.57;;
18140;SDS011;9196;49.194;12.526;2022-08-21T01:19:48;14.30;;;12.87;;
18140;SDS011;9196;49.194;12.526;2022-08-21T01:22:16;15.17;;;13.07;;
18140;SDS011;9196;49.194;12.526;2022-08-21T01:24:44;13.20;;;12.00;;
18140;SDS011;9196;49.194;12.526;2022-08-21T01:27:11;13.50;;;12.10;;
18140;SDS011;9196;49.194;12.526;2022-08-21T01:29:38;13.77;;;12.47;;
18140;SDS011;9196;49.194;12.526;2022-08-21T01:32:11;18.33;;;12.73;;
18140;SDS011;9196;49.194;12.526;2022-08-21T01:34:42;12.13;;;11.00;;
18140;SDS011;9196;49.194;12.526;2022-08-21T01:37:10;12.40;;;11.30;;
18140;SDS011;9196;49.194;12.526;2022-08-21T01:39:39;14.70;;;13.13;;
18140;SDS011;9196;49.194;12.526;2022-08-21T01:42:07;25.00;;;11.83;;
18140;SDS011;9196;49.194;12.526;2022-08-21T01:44:34;15.27;;;13.73;;
18140;SDS011;9196;49.194;12.526;2022-08-21T01:47:02;17.10;;;14.40;;
18140;SDS011;9196;49.194;12.526;2022-08-21T01:49:31;14.03;;;12.73;;
18140;SDS011;9196;49.194;12.526;2022-08-21T01:51:58;16.37;;;13.23;;
18140;SDS011;9196;49.194;12.526;2022-08-21T01:54:24;15.60;;;13.60;;
18140;SDS011;9196;49.194;12.526;2022-08-21T01:56:53;17.90;;;12.80;;
18140;SDS011;9196;49.194;12.526;2022-08-21T01:59:20;16.40;;;14.77;;
18140;SDS011;9196;49.194;12.526;2022-08-21T02:01:49;16.53;;;14.60;;
18140;SDS011;9196;49.194;12.526;2022-08-21T02:04:16;14.30;;;13.00;;
18140;SDS011;9196;49.194;12.526;2022-08-21T02:06:43;20.73;;;14.27;;
18140;SDS011;9196;49.194;12.526;2022-08-21T02:09:10;15.40;;;13.90;;
18140;SDS011;9196;49.194;12.526;2022-08-21T02:11:39;15.63;;;13.80;;
18140;SDS011;9196;49.194;12.526;2022-08-21T02:14:08;15.87;;;14.17;;
18140;SDS011;9196;49.194;12.526;2022-08-21T02:16:36;15.90;;;12.07;;
18140;SDS011;9196;49.194;12.526;2022-08-21T02:19:04;14.67;;;13.17;;
18140;SDS011;9196;49.194;12.526;2022-08-21T02:21:31;15.80;;;13.83;;
18140;SDS011;9196;49.194;12.526;2022-08-21T02:23:58;15.63;;;14.03;;
18140;SDS011;9196;49.194;12.526;2022-08-21T02:26:25;15.83;;;13.63;;
18140;SDS011;9196;49.194;12.526;2022-08-21T02:28:52;16.40;;;13.70;;
18140;SDS011;9196;49.194;12.526;2022-08-21T02:31:20;15.97;;;14.27;;
18140;SDS011;9196;49.194;12.526;2022-08-21T02:33:47;17.07;;;14.73;;
18140;SDS011;9196;49.194;12.526;2022-08-21T02:36:14;17.37;;;15.33;;
18140;SDS011;9196;49.194;12.526;2022-08-21T02:38:41;15.80;;;14.10;;
18140;SDS011;9196;49.194;12.526;2022-08-21T02:41:09;15.83;;;14.23;;
18140;SDS011;9196;49.194;12.526;2022-08-21T02:43:37;16.10;;;13.90;;
18140;SDS011;9196;49.194;12.526;2022-08-21T02:46:04;15.27;;;13.20;;
18140;SDS011;9196;49.194;12.526;2022-08-21T02:48:34;16.50;;;14.47;;
18140;SDS011;9196;49.194;12.526;2022-08-21T02:51:02;16.73;;;14.93;;
18140;SDS011;9196;49.194;12.526;2022-08-21T02:53:30;15.30;;;13.70;;
18140;SDS011;9196;49.194;12.526;2022-08-21T02:55:58;16.33;;;14.73;;
18140;SDS011;9196;49.194;12.526;2022-08-21T02:58:28;15.20;;;13.60;;
18140;SDS011;9196;49.194;12.526;2022-08-21T03:00:57;16.13;;;14.43;;
18140;SDS011;9196;49.194;12.526;2022-08-21T03:03:24;17.73;;;15.30;;
18140;SDS011;9196;49.194;12.526;2022-08-21T03:05:53;22.20;;;16.00;;
18140;SDS011;9196;49.194;12.526;2022-08-21T03:08:21;17.57;;;14.43;;
18140;SDS011;9196;49.194;12.526;2022-08-21T03:10:50;16.03;;;14.33;;
18140;SDS011;9196;49.194;12.526;2022-08-21T03:13:18;18.83;;;16.30;;
18140;SDS011;9196;49.194;12.526;2022-08-21T03:15:46;18.67;;;15.60;;
18140;SDS011;9196;49.194;12.526;2022-08-21T03:18:14;17.50;;;14.80;;
18140;SDS011;9196;49.194;12.526;2022-08-21T03:20:42;17.00;;;15.20;;
18140;SDS011;9196;49.194;12.526;2022-08-21T03:23:11;17.47;;;15.67;;
18140;SDS011;9196;49.194;12.526;2022-08-21T03:25:38;18.63;;;15.10;;
18140;SDS011;9196;49.194;12.526;2022-08-21T03:28:06;17.47;;;15.27;;
18140;SDS011;9196;49.194;12.526;2022-08-21T03:30:35;16.20;;;14.50;;
18140;SDS011;9196;49.194;12.526;2022-08-21T03:33:01;17.87;;;14.27;;
18140;SDS011;9196;49.194;12.526;2022-08-21T03:35:28;16.50;;;14.60;;
18140;SDS011;9196;49.194;12.526;2022-08-21T03:37:56;16.17;;;13.80;;
18140;SDS011;9196;49.194;12.526;2022-08-21T03:40:24;18.73;;;14.67;;
18140;SDS011;9196;49.194;12.526;2022-08-21T03:42:51;17.77;;;15.73;;
18140;SDS011;9196;49.194;12.526;2022-08-21T03:45:18;14.53;;;13.07;;
18140;SDS011;9196;49.194;12.526;2022-08-21T03:47:51;16.90;;;14.50;;
18140;SDS011;9196;49.194;12.526;2022-08-21T03:50:20;18.70;;;15.57;;
18140;SDS011;9196;49.194;12.526;2022-08-21T03:52:48;19.67;;;14.20;;
18140;SDS011;9196;49.194;12.526;2022-08-21T03:55:15;20.03;;;16.30;;
18140;SDS011;9196;49.194;12.526;2022-08-21T03:57:43;18.87;;;16.23;;
18140;SDS011;9196;49.194;12.526;2022-08-21T04:00:11;19.47;;;16.90;;
18140;SDS011;9196;49.194;12.526;2022-08-21T04:02:39;22.20;;;17.80;;
18140;SDS011;9196;49.194;12.526;2022-08-21T04:05:07;20.37;;;16.80;;
18140;SDS011;9196;49.194;12.526;2022-08-21T04:07:34;22.03;;;17.77;;
18140;SDS011;9196;49.194;12.526;2022-08-21T04:10:01;24.20;;;18.60;;
18140;SDS011;9196;49.194;12.526;2022-08-21T04:12:29;22.90;;;17.33;;
18140;SDS011;9196;49.194;12.526;2022-08-21T04:14:58;30.60;;;20.67;;
18140;SDS011;9196;49.194;12.526;2022-08-21T04:17:26;21.73;;;18.50;;
18140;SDS011;9196;49.194;12.526;2022-08-21T04:19:53;24.47;;;17.70;;
18140;SDS011;9196;49.194;12.526;2022-08-21T04:22:20;23.00;;;19.10;;
18140;SDS011;9196;49.194;12.526;2022-08-21T04:24:47;26.20;;;19.80;;
18140;SDS011;9196;49.194;12.526;2022-08-21T04:27:14;25.33;;;19.40;;
18140;SDS011;9196;49.194;12.526;2022-08-21T04:29:41;28.47;;;20.03;;
18140;SDS011;9196;49.194;12.526;2022-08-21T04:32:09;26.87;;;22.20;;
18140;SDS011;9196;49.194;12.526;2022-08-21T04:34:36;27.73;;;19.30;;
18140;SDS011;9196;49.194;12.526;2022-08-21T04:37:03;25.27;;;18.37;;
18140;SDS011;9196;49.194;12.526;2022-08-21T04:39:30;27.43;;;19.97;;
18140;SDS011;9196;49.194;12.526;2022-08-21T04:41:56;25.60;;;20.37;;
18140;SDS011;9196;49.194;12.526;2022-08-21T04:44:23;33.27;;;23.90;;
18140;SDS011;9196;49.194;12.526;2022-08-21T04:46:50;25.60;;;19.63;;
18140;SDS011;9196;49.194;12.526;2022-08-21T04:49:18;24.60;;;20.10;;
18140;SDS011;9196;49.194;12.526;2022-08-21T04:51:45;29.13;;;20.83;;
18140;SDS011;9196;49.194;12.526;2022-08-21T04:54:12;25.50;;;20.23;;
18140;SDS011;9196;49.194;12.526;2022-08-21T04:56:44;28.60;;;20.23;;
18140;SDS011;9196;49.194;12.526;2022-08-21T04:59:15;27.17;;;21.27;;
18140;SDS011;9196;49.194;12.526;2022-08-21T05:01:46;23.27;;;19.40;;
18140;SDS011;9196;49.194;12.526;2022-08-21T05:04:14;37.93;;;26.00;;
18140;SDS011;9196;49.194;12.526;2022-08-21T05:06:45;33.33;;;23.77;;
18140;SDS011;9196;49.194;12.526;2022-08-21T05:09:14;24.10;;;20.20;;
18140;SDS011;9196;49.194;12.526;2022-08-21T05:11:42;23.70;;;18.90;;
18140;SDS011;9196;49.194;12.526;2022-08-21T05:14:10;30.80;;;23.03;;
18140;SDS011;9196;49.194;12.526;2022-08-21T05:16:37;30.10;;;20.67;;
18140;SDS011;9196;49.194;12.526;2022-08-21T05:19:04;24.77;;;19.93;;
18140;SDS011;9196;49.194;12.526;2022-08-21T05:21:32;26.90;;;19.60;;
18140;SDS011;9196;49.194;12.526;2022-08-21T05:24:00;26.00;;;20.13;;
18140;SDS011;9196;49.194;12.526;2022-08-21T05:26:27;35.00;;;24.30;;
18140;SDS011;9196;49.194;12.526;2022-08-21T05:28:54;31.63;;;22.07;;
18140;SDS011;9196;49.194;12.526;2022-08-21T05:31:22;32.43;;;21.50;;
18140;SDS011;9196;49.194;12.526;2022-08-21T05:33:48;27.10;;;21.17;;
18140;SDS011;9196;49.194;12.526;2022-08-21T05:36:16;26.30;;;22.10;;
18140;SDS011;9196;49.194;12.526;2022-08-21T05:38:43;28.20;;;20.73;;
18140;SDS011;9196;49.194;12.526;2022-08-21T05:41:11;34.23;;;22.87;;
18140;SDS011;9196;49.194;12.526;2022-08-21T05:43:38;27.13;;;21.30;;
18140;SDS011;9196;49.194;12.526;2022-08-21T05:46:05;26.50;;;21.43;;
18140;SDS011;9196;49.194;12.526;2022-08-21T05:48:33;36.30;;;20.70;;
18140;SDS011;9196;49.194;12.526;2022-08-21T05:51:03;26.63;;;20.50;;
18140;SDS011;9196;49.194;12.526;2022-08-21T05:53:31;28.07;;;21.77;;
18140;SDS011;9196;49.194;12.526;2022-08-21T05:55:58;26.53;;;22.47;;
18140;SDS011;9196;49.194;12.526;2022-08-21T05:58:26;29.80;;;22.57;;
18140;SDS011;9196;49.194;12.526;2022-08-21T06:00:53;29.30;;;21.93;;
18140;SDS011;9196;49.194;12.526;2022-08-21T06:03:21;28.00;;;22.23;;
18140;SDS011;9196;49.194;12.526;2022-08-21T06:05:50;33.90;;;23.87;;
18140;SDS011;9196;49.194;12.526;2022-08-21T06:08:17;30.57;;;24.60;;
18140;SDS011;9196;49.194;12.526;2022-08-21T06:10:45;32.33;;;23.67;;
18140;SDS011;9196;49.194;12.526;2022-08-21T06:13:14;25.40;;;21.23;;
18140;SDS011;9196;49.194;12.526;2022-08-21T06:15:42;32.00;;;23.07;;
18140;SDS011;9196;49.194;12.526;2022-08-21T06:18:09;31.77;;;23.27;;
18140;SDS011;9196;49.194;12.526;2022-08-21T06:20:36;33.20;;;24.10;;
18140;SDS011;9196;49.194;12.526;2022-08-21T06:23:04;32.53;;;24.17;;
18140;SDS011;9196;49.194;12.526;2022-08-21T06:25:31;31.57;;;25.27;;
18140;SDS011;9196;49.194;12.526;2022-08-21T06:28:01;33.53;;;23.73;;
18140;SDS011;9196;49.194;12.526;2022-08-21T06:30:29;33.27;;;23.47;;
18140;SDS011;9196;49.194;12.526;2022-08-21T06:32:57;31.00;;;25.80;;
18140;SDS011;9196;49.194;12.526;2022-08-21T06:35:24;25.93;;;22.27;;
18140;SDS011;9196;49.194;12.526;2022-08-21T06:37:50;30.40;;;23.47;;
18140;SDS011;9196;49.194;12.526;2022-08-21T06:40:17;27.83;;;20.67;;
18140;SDS011;9196;49.194;12.526;2022-08-21T06:42:44;29.73;;;22.57;;
18140;SDS011;9196;49.194;12.526;2022-08-21T06:45:11;27.77;;;22.87;;
18140;SDS011;9196;49.194;12.526;2022-08-21T06:47:39;32.23;;;22.23;;
18140;SDS011;9196;49.194;12.526;2022-08-21T06:50:08;32.83;;;23.47;;
18140;SDS011;9196;49.194;12.526;2022-08-21T06:52:35;24.10;;;19.40;;
18140;SDS011;9196;49.194;12.526;2022-08-21T06:55:02;25.07;;;20.40;;
18140;SDS011;9196;49.194;12.526;2022-08-21T06:57:31;26.43;;;20.70;;
18140;SDS011;9196;49.194;12.526;2022-08-21T06:59:58;29.60;;;22.40;;
18140;SDS011;9196;49.194;12.526;2022-08-21T07:02:25;27.27;;;23.37;;
18140;SDS011;9196;49.194;12.526;2022-08-21T07:04:52;23.40;;;19.57;;
18140;SDS011;9196;49.194;12.526;2022-08-21T07:07:20;24.60;;;19.90;;
18140;SDS011;9196;49.194;12.526;2022-08-21T07:09:46;34.30;;;23.33;;
18140;SDS011;9196;49.194;12.526;2022-08-21T07:12:13;24.93;;;21.07;;
18140;SDS011;9196;49.194;12.526;2022-08-21T07:14:40;29.30;;;21.97;;
18140;SDS011;9196;49.194;12.526;2022-08-21T07:17:07;30.27;;;23.17;;
18140;SDS011;9196;49.194;12.526;2022-08-21T07:19:34;26.50;;;21.30;;
18140;SDS011;9196;49.194;12.526;2022-08-21T07:22:01;25.60;;;21.60;;
18140;SDS011;9196;49.194;12.526;2022-08-21T07:24:30;29.83;;;23.17;;
18140;SDS011;9196;49.194;12.526;2022-08-21T07:26:57;29.03;;;24.07;;
18140;SDS011;9196;49.194;12.526;2022-08-21T07:29:24;30.50;;;23.03;;
18140;SDS011;9196;49.194;12.526;2022-08-21T07:31:51;32.37;;;24.30;;
18140;SDS011;9196;49.194;12.526;2022-08-21T07:34:17;33.30;;;23.50;;
18140;SDS011;9196;49.194;12.526;2022-08-21T07:36:44;30.43;;;21.93;;
18140;SDS011;9196;49.194;12.526;2022-08-21T07:39:11;39.53;;;24.30;;
18140;SDS011;9196;49.194;12.526;2022-08-21T07:41:39;37.17;;;24.27;;
18140;SDS011;9196;49.194;12.526;2022-08-21T07:44:06;32.00;;;23.43;;
18140;SDS011;9196;49.194;12.526;2022-08-21T07:46:33;29.70;;;24.07;;
18140;SDS011;9196;49.194;12.526;2022-08-21T07:49:00;39.63;;;25.70;;
18140;SDS011;9196;49.194;12.526;2022-08-21T07:51:27;29.87;;;24.13;;
18140;SDS011;9196;49.194;12.526;2022-08-21T07:53:55;33.50;;;25.03;;
18140;SDS011;9196;49.194;12.526;2022-08-21T07:56:23;28.90;;;22.33;;
18140;SDS011;9196;49.194;12.526;2022-08-21T07:58:52;38.60;;;27.10;;
18140;SDS011;9196;49.194;12.526;2022-08-21T08:01:19;35.30;;;25.10;;
18140;SDS011;9196;49.194;12.526;2022-08-21T08:03:46;32.57;;;24.80;;
18140;SDS011;9196;49.194;12.526;2022-08-21T08:06:13;31.03;;;24.47;;
18140;SDS011;9196;49.194;12.526;2022-08-21T08:08:41;28.47;;;22.60;;
18140;SDS011;9196;49.194;12.526;2022-08-21T08:11:08;26.07;;;22.17;;
18140;SDS011;9196;49.194;12.526;2022-08-21T08:13:38;25.53;;;22.70;;
18140;SDS011;9196;49.194;12.526;2022-08-21T08:16:07;26.60;;;21.13;;
18140;SDS011;9196;49.194;12.526;2022-08-21T08:18:34;22.73;;;19.97;;
18140;SDS011;9196;49.194;12.526;2022-08-21T08:21:01;25.53;;;21.23;;
18140;SDS011;9196;49.194;12.526;2022-08-21T08:23:28;23.50;;;20.17;;
18140;SDS011;9196;49.194;12.526;2022-08-21T08:25:55;26.10;;;22.93;;
18140;SDS011;9196;49.194;12.526;2022-08-21T08:28:22;24.50;;;19.40;;
18140;SDS011;9196;49.194;12.526;2022-08-21T08:30:49;25.60;;;20.63;;
18140;SDS011;9196;49.194;12.526;2022-08-21T08:33:17;26.07;;;20.83;;
18140;SDS011;9196;49.194;12.526;2022-08-21T08:35:45;24.23;;;20.63;;
18140;SDS011;9196;49.194;12.526;2022-08-21T08:38:13;24.50;;;19.90;;
18140;SDS011;9196;49.194;12.526;2022-08-21T08:40:45;25.90;;;21.20;;
18140;SDS011;9196;49.194;12.526;2022-08-21T08:43:17;21.83;;;19.30;;
18140;SDS011;9196;49.194;12.526;2022-08-21T08:45:46;27.20;;;20.37;;
18140;SDS011;9196;49.194;12.526;2022-08-21T08:48:19;22.93;;;19.90;;
18140;SDS011;9196;49.194;12.526;2022-08-21T08:51:00;23.77;;;21.27;;
18140;SDS011;9196;49.194;12.526;2022-08-21T08:53:32;22.77;;;18.80;;
18140;SDS011;9196;49.194;12.526;2022-08-21T08:56:03;23.57;;;19.33;;
18140;SDS011;9196;49.194;12.526;2022-08-21T08:58:33;24.30;;;19.00;;
18140;SDS011;9196;49.194;12.526;2022-08-21T09:01:03;25.70;;;20.00;;
18140;SDS011;9196;49.194;12.526;2022-08-21T09:03:38;23.43;;;19.63;;
18140;SDS011;9196;49.194;12.526;2022-08-21T09:06:06;23.67;;;20.77;;
18140;SDS011;9196;49.194;12.526;2022-08-21T09:08:46;28.27;;;20.67;;
18140;SDS011;9196;49.194;12.526;2022-08-21T09:11:22;26.40;;;20.50;;
18140;SDS011;9196;49.194;12.526;2022-08-21T09:13:56;24.67;;;20.90;;
18140;SDS011;9196;49.194;12.526;2022-08-21T09:16:33;20.50;;;18.47;;
18140;SDS011;9196;49.194;12.526;2022-08-21T09:19:10;19.37;;;17.40;;
18140;SDS011;9196;49.194;12.526;2022-08-21T09:21:53;21.23;;;16.70;;
18140;SDS011;9196;49.194;12.526;2022-08-21T09:24:29;18.90;;;16.90;;
18140;SDS011;9196;49.194;12.526;2022-08-21T09:27:02;19.80;;;17.70;;
18140;SDS011;9196;49.194;12.526;2022-08-21T09:29:36;18.67;;;16.77;;
18140;SDS011;9196;49.194;12.526;2022-08-21T09:32:09;20.40;;;16.77;;
18140;SDS011;9196;49.194;12.526;2022-08-21T09:34:38;16.27;;;14.37;;
18140;SDS011;9196;49.194;12.526;2022-08-21T09:37:05;17.80;;;14.80;;
18140;SDS011;9196;49.194;12.526;2022-08-21T09:39:42;18.90;;;16.77;;
18140;SDS011;9196;49.194;12.526;2022-08-21T09:42:10;17.70;;;15.80;;
18140;SDS011;9196;49.194;12.526;2022-08-21T09:44:46;17.67;;;14.27;;
18140;SDS011;9196;49.194;12.526;2022-08-21T09:47:13;20.10;;;17.60;;
18140;SDS011;9196;49.194;12.526;2022-08-21T09:49:47;16.93;;;15.20;;
18140;SDS011;9196;49.194;12.526;2022-08-21T09:52:16;16.07;;;14.47;;
18140;SDS011;9196;49.194;12.526;2022-08-21T09:54:48;20.53;;;18.27;;
18140;SDS011;9196;49.194;12.526;2022-08-21T09:57:19;21.03;;;17.70;;
18140;SDS011;9196;49.194;12.526;2022-08-21T10:00:08;17.67;;;15.77;;
18140;SDS011;9196;49.194;12.526;2022-08-21T10:02:41;19.33;;;17.30;;
18140;SDS011;9196;49.194;12.526;2022-08-21T10:05:16;19.60;;;17.33;;
18140;SDS011;9196;49.194;12.526;2022-08-21T10:07:45;21.47;;;18.57;;
18140;SDS011;9196;49.194;12.526;2022-08-21T10:10:14;21.20;;;18.07;;
18140;SDS011;9196;49.194;12.526;2022-08-21T10:12:46;20.50;;;18.40;;
18140;SDS011;9196;49.194;12.526;2022-08-21T10:15:21;20.93;;;17.80;;
18140;SDS011;9196;49.194;12.526;2022-08-21T10:18:03;17.77;;;16.03;;
18140;SDS011;9196;49.194;12.526;2022-08-21T10:20:40;16.53;;;14.90;;
18140;SDS011;9196;49.194;12.526;2022-08-21T10:23:30;18.40;;;16.10;;
18140;SDS011;9196;49.194;12.526;2022-08-21T10:26:09;17.77;;;15.90;;
18140;SDS011;9196;49.194;12.526;2022-08-21T10:28:54;18.60;;;14.23;;
18140;SDS011;9196;49.194;12.526;2022-08-21T10:31:30;18.67;;;16.67;;
18140;SDS011;9196;49.194;12.526;2022-08-21T10:34:06;22.83;;;16.80;;
18140;SDS011;9196;49.194;12.526;2022-08-21T10:36:52;16.87;;;14.90;;
18140;SDS011;9196;49.194;12.526;2022-08-21T10:39:27;17.20;;;15.43;;
18140;SDS011;9196;49.194;12.526;2022-08-21T10:42:06;16.67;;;14.90;;
18140;SDS011;9196;49.194;12.526;2022-08-21T10:44:46;17.80;;;14.90;;
18140;SDS011;9196;49.194;12.526;2022-08-21T10:47:24;13.80;;;12.40;;
18140;SDS011;9196;49.194;12.526;2022-08-21T10:49:57;13.80;;;12.40;;
18140;SDS011;9196;49.194;12.526;2022-08-21T10:52:35;15.53;;;13.93;;
18140;SDS011;9196;49.194;12.526;2022-08-21T10:55:18;14.77;;;13.27;;
18140;SDS011;9196;49.194;12.526;2022-08-21T10:57:49;18.60;;;13.73;;
18140;SDS011;9196;49.194;12.526;2022-08-21T11:00:21;16.40;;;14.70;;
18140;SDS011;9196;49.194;12.526;2022-08-21T11:02:51;15.97;;;14.27;;
18140;SDS011;9196;49.194;12.526;2022-08-21T11:05:24;14.27;;;12.77;;
18140;SDS011;9196;49.194;12.526;2022-08-21T11:07:58;16.00;;;14.30;;
18140;SDS011;9196;49.194;12.526;2022-08-21T11:10:31;13.23;;;11.83;;
18140;SDS011;9196;49.194;12.526;2022-08-21T11:13:03;14.00;;;12.57;;
18140;SDS011;9196;49.194;12.526;2022-08-21T11:15:37;12.33;;;11.13;;
18140;SDS011;9196;49.194;12.526;2022-08-21T11:18:13;15.00;;;13.40;;
18140;SDS011;9196;49.194;12.526;2022-08-21T11:20:46;13.40;;;12.00;;
18140;SDS011;9196;49.194;12.526;2022-08-21T11:23:18;12.47;;;11.30;;
18140;SDS011;9196;49.194;12.526;2022-08-21T11:25:51;19.77;;;13.83;;
18140;SDS011;9196;49.194;12.526;2022-08-21T11:28:24;16.53;;;11.40;;
18140;SDS011;9196;49.194;12.526;2022-08-21T11:30:58;13.03;;;11.37;;
18140;SDS011;9196;49.194;12.526;2022-08-21T11:33:41;14.37;;;12.93;;
18140;SDS011;9196;49.194;12.526;2022-08-21T11:36:18;14.53;;;13.03;;
18140;SDS011;9196;49.194;12.526;2022-08-21T11:39:08;11.20;;;10.20;;
18140;SDS011;9196;49.194;12.526;2022-08-21T11:41:43;12.70;;;10.40;;
18140;SDS011;9196;49.194;12.526;2022-08-21T11:44:17;13.23;;;12.00;;
18140;SDS011;9196;49.194;12.526;2022-08-21T11:46:52;16.33;;;11.27;;
18140;SDS011;9196;49.194;12.526;2022-08-21T11:49:28;15.53;;;11.27;;
18140;SDS011;9196;49.194;12.526;2022-08-21T11:52:05;13.73;;;12.30;;
18140;SDS011;9196;49.194;12.526;2022-08-21T11:54:40;11.40;;;10.30;;
18140;SDS011;9196;49.194;12.526;2022-08-21T11:57:13;10.00;;;9.00;;
18140;SDS011;9196;49.194;12.526;2022-08-21T11:59:45;11.63;;;10.43;;
18140;SDS011;9196;49.194;12.526;2022-08-21T12:02:16;10.87;;;9.87;;
18140;SDS011;9196;49.194;12.526;2022-08-21T12:04:46;13.20;;;11.60;;
18140;SDS011;9196;49.194;12.526;2022-08-21T12:07:16;12.37;;;11.10;;
18140;SDS011;9196;49.194;12.526;2022-08-21T12:09:56;11.63;;;10.43;;
18140;SDS011;9196;49.194;12.526;2022-08-21T12:12:25;12.50;;;11.30;;
18140;SDS011;9196;49.194;12.526;2022-08-21T12:17:53;16.63;;;13.80;;
18140;SDS011;9196;49.194;12.526;2022-08-21T12:20:32;10.70;;;9.70;;
18140;SDS011;9196;49.194;12.526;2022-08-21T12:23:05;15.93;;;11.23;;
18140;SDS011;9196;49.194;12.526;2022-08-21T12:25:46;14.17;;;12.70;;
18140;SDS011;9196;49.194;12.526;2022-08-21T12:28:25;11.03;;;9.20;;
18140;SDS011;9196;49.194;12.526;2022-08-21T12:30:52;12.37;;;11.20;;
18140;SDS011;9196;49.194;12.526;2022-08-21T12:33:23;12.07;;;10.97;;
18140;SDS011;9196;49.194;12.526;2022-08-21T12:35:52;13.67;;;11.80;;
18140;SDS011;9196;49.194;12.526;2022-08-21T12:38:28;11.73;;;10.63;;
18140;SDS011;9196;49.194;12.526;2022-08-21T12:41:00;12.73;;;10.13;;
18140;SDS011;9196;49.194;12.526;2022-08-21T12:43:31;10.63;;;9.57;;
18140;SDS011;9196;49.194;12.526;2022-08-21T12:46:01;10.73;;;9.70;;
18140;SDS011;9196;49.194;12.526;2022-08-21T12:48:31;9.30;;;8.50;;
18140;SDS011;9196;49.194;12.526;2022-08-21T12:51:06;8.67;;;7.77;;
18140;SDS011;9196;49.194;12.526;2022-08-21T12:53:38;8.50;;;7.80;;
18140;SDS011;9196;49.194;12.526;2022-08-21T12:56:13;8.13;;;7.37;;
18140;SDS011;9196;49.194;12.526;2022-08-21T12:58:44;7.07;;;6.47;;
18140;SDS011;9196;49.194;12.526;2022-08-21T13:01:15;8.10;;;7.27;;
18140;SDS011;9196;49.194;12.526;2022-08-21T13:03:43;7.90;;;7.30;;
18140;SDS011;9196;49.194;12.526;2022-08-21T13:06:12;9.20;;;8.17;;
18140;SDS011;9196;49.194;12.526;2022-08-21T13:08:42;6.70;;;6.10;;
18140;SDS011;9196;49.194;12.526;2022-08-21T13:11:14;10.53;;;6.33;;
18140;SDS011;9196;49.194;12.526;2022-08-21T13:13:47;6.50;;;5.90;;
18140;SDS011;9196;49.194;12.526;2022-08-21T13:16:17;6.50;;;5.90;;
18140;SDS011;9196;49.194;12.526;2022-08-21T13:18:51;6.60;;;6.10;;
18140;SDS011;9196;49.194;12.526;2022-08-21T13:21:21;7.47;;;6.77;;
18140;SDS011;9196;49.194;12.526;2022-08-21T13:23:53;6.70;;;6.10;;
18140;SDS011;9196;49.194;12.526;2022-08-21T13:26:21;6.47;;;5.97;;
18140;SDS011;9196;49.194;12.526;2022-08-21T13:28:49;7.03;;;6.20;;
18140;SDS011;9196;49.194;12.526;2022-08-21T13:31:16;6.80;;;6.20;;
18140;SDS011;9196;49.194;12.526;2022-08-21T13:33:46;6.63;;;6.00;;
18140;SDS011;9196;49.194;12.526;2022-08-21T13:36:17;7.30;;;5.10;;
18140;SDS011;9196;49.194;12.526;2022-08-21T13:38:48;5.57;;;5.27;;
18140;SDS011;9196;49.194;12.526;2022-08-21T13:41:18;5.10;;;4.70;;
18140;SDS011;9196;49.194;12.526;2022-08-21T13:43:57;5.50;;;5.10;;
18140;SDS011;9196;49.194;12.526;2022-08-21T13:46:26;5.77;;;5.27;;
18140;SDS011;9196;49.194;12.526;2022-08-21T13:48:58;6.33;;;5.50;;
18140;SDS011;9196;49.194;12.526;2022-08-21T13:51:26;6.27;;;5.33;;
18140;SDS011;9196;49.194;12.526;2022-08-21T13:53:53;5.00;;;4.60;;
18140;SDS011;9196;49.194;12.526;2022-08-21T13:56:23;5.87;;;5.37;;
18140;SDS011;9196;49.194;12.526;2022-08-21T13:58:51;6.10;;;5.60;;
18140;SDS011;9196;49.194;12.526;2022-08-21T14:01:22;6.30;;;5.80;;
18140;SDS011;9196;49.194;12.526;2022-08-21T14:03:53;4.10;;;3.90;;
18140;SDS011;9196;49.194;12.526;2022-08-21T14:06:24;3.80;;;3.60;;
18140;SDS011;9196;49.194;12.526;2022-08-21T14:08:55;5.73;;;3.90;;
18140;SDS011;9196;49.194;12.526;2022-08-21T14:11:25;4.40;;;4.00;;
18140;SDS011;9196;49.194;12.526;2022-08-21T14:13:56;4.03;;;3.73;;
18140;SDS011;9196;49.194;12.526;2022-08-21T14:16:26;3.60;;;3.30;;
18140;SDS011;9196;49.194;12.526;2022-08-21T14:19:06;5.30;;;3.33;;
18140;SDS011;9196;49.194;12.526;2022-08-21T14:21:37;3.27;;;3.07;;
18140;SDS011;9196;49.194;12.526;2022-08-21T14:24:07;4.97;;;3.60;;
18140;SDS011;9196;49.194;12.526;2022-08-21T14:26:44;3.70;;;3.50;;
18140;SDS011;9196;49.194;12.526;2022-08-21T14:29:15;3.83;;;3.63;;
18140;SDS011;9196;49.194;12.526;2022-08-21T14:31:47;4.07;;;3.77;;
18140;SDS011;9196;49.194;12.526;2022-08-21T14:34:16;3.70;;;3.50;;
18140;SDS011;9196;49.194;12.526;2022-08-21T14:36:44;3.40;;;3.20;;
18140;SDS011;9196;49.194;12.526;2022-08-21T14:39:11;3.10;;;3.00;;
18140;SDS011;9196;49.194;12.526;2022-08-21T14:41:40;4.53;;;3.40;;
18140;SDS011;9196;49.194;12.526;2022-08-21T14:44:07;3.80;;;3.50;;